createdAt,value
2019-02-08T00:01:58.330Z,1.70
2019-02-08T00:04:49.861Z,1.77
2019-02-08T00:07:39.934Z,1.87
2019-02-08T00:10:30.490Z,1.90
2019-02-08T00:13:21.690Z,1.80
2019-02-08T00:16:12.584Z,2.00
2019-02-08T00:19:03.347Z,1.50
2019-02-08T00:21:53.381Z,1.60
2019-02-08T00:24:43.624Z,2.03
2019-02-08T00:27:33.829Z,1.67
2019-02-08T00:30:25.037Z,2.10
2019-02-08T00:33:16.102Z,1.70
2019-02-08T00:36:06.422Z,2.10
2019-02-08T00:38:56.463Z,1.37
2019-02-08T00:41:46.797Z,1.93
2019-02-08T00:44:36.914Z,1.40
2019-02-08T00:47:27.258Z,1.60
2019-02-08T00:50:19.713Z,1.70
2019-02-08T00:53:10.141Z,1.33
2019-02-08T00:56:01.029Z,1.63
2019-02-08T00:58:51.730Z,1.40
2019-02-08T01:01:41.656Z,1.33
2019-02-08T01:04:31.858Z,1.77
2019-02-08T01:07:22.086Z,1.43
2019-02-08T01:10:19.038Z,1.97
2019-02-08T01:13:09.003Z,1.33
2019-02-08T01:15:59.073Z,1.47
2019-02-08T01:18:49.070Z,1.53
2019-02-08T01:21:39.366Z,1.53
2019-02-08T01:24:29.685Z,1.80
2019-02-08T01:27:20.188Z,1.80
2019-02-08T01:30:14.247Z,1.80
2019-02-08T01:33:04.978Z,1.43
2019-02-08T01:35:55.147Z,1.40
2019-02-08T01:38:45.486Z,1.57
2019-02-08T01:41:35.896Z,1.77
2019-02-08T01:44:25.866Z,1.77
2019-02-08T01:47:16.205Z,1.43
2019-02-08T01:50:10.518Z,1.87
2019-02-08T01:53:00.814Z,1.87
2019-02-08T01:55:50.806Z,2.03
2019-02-08T01:58:41.034Z,1.70
2019-02-08T02:01:31.315Z,2.60
2019-02-08T02:04:21.619Z,2.03
2019-02-08T02:07:12.914Z,2.17
2019-02-08T02:10:03.031Z,2.10
2019-02-08T02:12:53.319Z,1.63
2019-02-08T02:15:43.814Z,2.10
2019-02-08T02:18:33.722Z,2.10
2019-02-08T02:21:24.474Z,2.07
2019-02-08T02:24:14.477Z,2.20
2019-02-08T02:27:04.543Z,2.60
2019-02-08T02:29:54.994Z,2.23
2019-02-08T02:32:45.321Z,2.10
2019-02-08T02:35:35.727Z,1.67
2019-02-08T02:38:25.778Z,1.63
2019-02-08T02:41:16.055Z,2.00
2019-02-08T02:44:06.471Z,2.37
2019-02-08T02:46:56.473Z,1.70
2019-02-08T02:49:46.354Z,1.70
2019-02-08T02:52:37.098Z,1.70
2019-02-08T02:55:27.521Z,1.90
2019-02-08T02:58:17.506Z,1.93
2019-02-08T03:01:07.974Z,1.73
2019-02-08T03:03:58.002Z,2.20
2019-02-08T03:06:48.283Z,1.90
2019-02-08T03:09:38.715Z,1.73
2019-02-08T03:12:28.780Z,2.20
2019-02-08T03:15:20.179Z,1.67
2019-02-08T03:18:10.557Z,2.00
2019-02-08T03:21:00.713Z,1.87
2019-02-08T03:23:51.062Z,1.90
2019-02-08T03:26:41.427Z,2.50
2019-02-08T03:29:32.750Z,1.60
2019-02-08T03:32:22.763Z,1.90
2019-02-08T03:35:16.302Z,2.00
2019-02-08T03:38:06.589Z,2.17
2019-02-08T03:40:56.788Z,1.70
2019-02-08T03:43:48.342Z,2.10
2019-02-08T03:46:38.470Z,1.90
2019-02-08T03:49:28.730Z,2.53
2019-02-08T03:52:19.010Z,2.40
2019-02-08T03:55:09.830Z,2.07
2019-02-08T03:57:59.853Z,2.50
2019-02-08T04:00:54.447Z,1.80
2019-02-08T04:03:44.761Z,2.23
2019-02-08T04:06:35.386Z,2.17
2019-02-08T04:09:25.624Z,1.80
2019-02-08T04:12:16.007Z,2.20
2019-02-08T04:15:08.203Z,1.70
2019-02-08T04:17:58.378Z,2.00
2019-02-08T04:20:48.366Z,1.90
2019-02-08T04:23:38.458Z,1.87
2019-02-08T04:26:28.752Z,1.90
2019-02-08T04:29:19.145Z,2.20
2019-02-08T04:32:09.107Z,2.20
2019-02-08T04:34:59.265Z,2.07
2019-02-08T04:37:49.589Z,2.67
2019-02-08T04:40:39.529Z,1.90
2019-02-08T04:43:29.851Z,2.57
2019-02-08T04:46:20.532Z,1.97
2019-02-08T04:49:11.034Z,1.50
2019-02-08T04:52:01.246Z,2.00
2019-02-08T04:54:51.579Z,2.00
2019-02-08T04:57:41.770Z,1.83
2019-02-08T05:00:34.045Z,2.00
2019-02-08T05:03:23.917Z,1.77
2019-02-08T05:06:14.157Z,1.77
2019-02-08T05:09:06.650Z,2.10
2019-02-08T05:11:56.642Z,1.90
2019-02-08T05:14:46.626Z,2.00
2019-02-08T05:17:37.032Z,1.83
2019-02-08T05:20:28.330Z,2.70
2019-02-08T05:23:18.392Z,2.47
2019-02-08T05:26:08.459Z,2.10
2019-02-08T05:28:58.590Z,1.80
2019-02-08T05:31:49.029Z,1.97
2019-02-08T05:34:39.262Z,2.30
2019-02-08T05:37:29.268Z,3.03
2019-02-08T05:40:20.403Z,2.70
2019-02-08T05:43:10.754Z,2.80
2019-02-08T05:46:00.941Z,2.27
2019-02-08T05:48:51.142Z,2.70
2019-02-08T05:51:41.076Z,3.20
2019-02-08T05:54:31.074Z,2.43
2019-02-08T05:57:21.530Z,2.57
2019-02-08T06:00:26.446Z,2.20
2019-02-08T06:03:16.836Z,2.13
2019-02-08T06:06:07.522Z,2.10
2019-02-08T06:08:57.538Z,2.33
2019-02-08T06:11:47.826Z,2.20
2019-02-08T06:14:38.665Z,2.00
2019-02-08T06:17:28.915Z,2.10
2019-02-08T06:20:20.548Z,2.03
2019-02-08T06:23:10.766Z,2.70
2019-02-08T06:26:01.054Z,2.80
2019-02-08T06:28:51.934Z,2.23
2019-02-08T06:31:42.118Z,2.50
2019-02-08T06:34:32.059Z,2.30
2019-02-08T06:37:22.237Z,2.20
2019-02-08T06:40:14.954Z,3.07
2019-02-08T06:43:05.815Z,2.80
2019-02-08T06:45:55.797Z,2.10
2019-02-08T06:48:46.150Z,2.23
2019-02-08T06:51:36.359Z,2.43
2019-02-08T06:54:28.285Z,2.63
2019-02-08T06:57:53.005Z,2.27
2019-02-08T07:01:06.637Z,3.10
2019-02-08T07:04:31.154Z,2.63
2019-02-08T07:07:46.557Z,3.60
2019-02-08T07:10:54.911Z,3.20
2019-02-08T07:14:10.465Z,3.53
2019-02-08T07:17:16.202Z,3.40
2019-02-08T07:20:32.461Z,3.10
2019-02-08T07:23:40.167Z,2.80
2019-02-08T07:26:55.330Z,3.33
2019-02-08T07:30:04.366Z,3.40
2019-02-08T07:33:24.027Z,3.37
2019-02-08T07:36:32.115Z,3.60
2019-02-08T07:39:44.119Z,3.93
2019-02-08T07:42:54.583Z,3.47
2019-02-08T07:46:13.886Z,3.50
2019-02-08T07:49:12.530Z,3.00
2019-02-08T07:52:21.506Z,3.40
2019-02-08T07:55:40.035Z,3.10
2019-02-08T07:59:07.494Z,3.37
2019-02-08T08:02:15.998Z,3.40
2019-02-08T08:05:25.581Z,3.77
2019-02-08T08:08:33.010Z,3.80
2019-02-08T08:11:47.823Z,3.37
2019-02-08T08:14:58.783Z,3.70
2019-02-08T08:18:13.850Z,3.47
2019-02-08T08:21:26.324Z,3.33
2019-02-08T08:24:37.410Z,3.07
2019-02-08T08:27:46.862Z,3.20
2019-02-08T08:30:56.499Z,2.80
2019-02-08T08:33:57.775Z,2.57
2019-02-08T08:37:33.594Z,3.47
2019-02-08T08:41:07.950Z,3.27
2019-02-08T08:44:37.015Z,2.90
2019-02-08T08:48:16.194Z,3.30
2019-02-08T08:51:26.829Z,2.53
2019-02-08T08:55:07.043Z,2.43
2019-02-08T08:58:31.494Z,3.03
2019-02-08T09:02:15.005Z,2.67
2019-02-08T09:05:32.940Z,3.33
2019-02-08T09:08:50.747Z,2.60
2019-02-08T09:12:09.965Z,2.83
2019-02-08T09:15:43.251Z,2.20
2019-02-08T09:19:09.385Z,2.57
2019-02-08T09:22:42.631Z,2.50
2019-02-08T09:26:00.985Z,2.53
2019-02-08T09:29:37.229Z,2.20
2019-02-08T09:33:17.290Z,2.43
2019-02-08T09:36:39.491Z,3.80
2019-02-08T09:40:06.877Z,2.20
2019-02-08T09:43:31.999Z,2.07
2019-02-08T09:47:05.208Z,2.00
2019-02-08T09:50:48.545Z,2.43
2019-02-08T09:54:14.293Z,2.63
2019-02-08T09:57:55.046Z,2.53
2019-02-08T10:01:13.334Z,2.20
2019-02-08T10:04:46.177Z,1.80
2019-02-08T10:08:13.417Z,2.73
2019-02-08T10:11:33.510Z,2.50
2019-02-08T10:15:04.507Z,1.80
2019-02-08T10:18:31.427Z,2.00
2019-02-08T10:21:57.692Z,1.73
2019-02-08T10:25:35.230Z,1.80
2019-02-08T10:29:14.605Z,1.50
2019-02-08T10:32:35.403Z,1.60
2019-02-08T10:36:22.542Z,1.97
2019-02-08T10:39:50.779Z,2.77
2019-02-08T10:43:16.341Z,1.90
2019-02-08T10:46:45.536Z,2.27
2019-02-08T10:50:30.622Z,1.30
2019-02-08T10:54:20.311Z,2.23
2019-02-08T10:58:02.874Z,1.67
2019-02-08T11:01:29.688Z,1.50
2019-02-08T11:05:25.457Z,1.60
2019-02-08T11:08:55.438Z,1.90
2019-02-08T11:12:12.153Z,2.10
2019-02-08T11:15:45.474Z,2.03
2019-02-08T11:19:15.437Z,1.70
2019-02-08T11:22:05.959Z,1.70
2019-02-08T11:24:56.345Z,1.70
2019-02-08T11:27:46.525Z,1.60
2019-02-08T11:30:36.726Z,1.57
2019-02-08T11:33:26.639Z,1.70
2019-02-08T11:36:17.076Z,1.67
2019-02-08T11:39:13.558Z,1.50
2019-02-08T11:42:03.609Z,2.07
2019-02-08T11:44:53.688Z,2.40
2019-02-08T11:47:43.662Z,2.67
2019-02-08T11:50:33.686Z,1.93
2019-02-08T11:53:24.429Z,2.00
2019-02-08T11:56:14.834Z,1.70
2019-02-08T11:59:05.929Z,2.00
2019-02-08T12:01:56.251Z,2.30
2019-02-08T12:04:46.402Z,2.17
2019-02-08T12:07:36.863Z,1.60
2019-02-08T12:10:26.921Z,1.77
2019-02-08T12:13:17.290Z,1.47
2019-02-08T12:16:07.203Z,2.23
2019-02-08T12:18:57.262Z,2.03
2019-02-08T12:21:47.582Z,2.43
2019-02-08T12:24:37.754Z,1.70
2019-02-08T12:27:28.093Z,1.60
2019-02-08T12:30:25.182Z,1.53
2019-02-08T12:33:15.079Z,1.43
2019-02-08T12:36:05.467Z,1.40
2019-02-08T12:38:55.369Z,2.00
2019-02-08T12:41:45.909Z,1.73
2019-02-08T12:44:36.077Z,1.50
2019-02-08T12:47:26.062Z,1.80
2019-02-08T12:50:16.647Z,1.30
2019-02-08T12:53:08.110Z,0.90
2019-02-08T12:55:59.042Z,2.27
2019-02-08T12:58:49.030Z,1.67
2019-02-08T13:01:39.388Z,1.70
2019-02-08T13:04:29.690Z,1.30
2019-02-08T13:07:20.046Z,1.30
2019-02-08T13:10:11.918Z,1.13
2019-02-08T13:13:01.937Z,1.53
2019-02-08T13:15:52.873Z,1.20
2019-02-08T13:18:45.319Z,1.73
2019-02-08T13:21:35.625Z,2.00
2019-02-08T13:24:25.958Z,1.87
2019-02-08T13:27:16.218Z,1.40
2019-02-08T13:30:18.013Z,1.20
2019-02-08T13:33:08.051Z,1.57
2019-02-08T13:35:58.249Z,1.33
2019-02-08T13:38:48.316Z,1.50
2019-02-08T13:41:38.466Z,1.20
2019-02-08T13:44:28.606Z,1.70
2019-02-08T13:47:19.089Z,1.40
2019-02-08T13:50:16.193Z,1.40
2019-02-08T13:53:06.405Z,1.67
2019-02-08T13:55:56.871Z,1.20
2019-02-08T13:58:46.843Z,1.50
2019-02-08T14:01:37.345Z,1.97
2019-02-08T14:04:27.193Z,2.27
2019-02-08T14:07:18.102Z,1.70
2019-02-08T14:10:09.650Z,0.97
2019-02-08T14:12:59.571Z,1.73
2019-02-08T14:15:50.038Z,2.13
2019-02-08T14:18:41.754Z,1.27
2019-02-08T14:21:31.952Z,1.63
2019-02-08T14:24:22.489Z,1.10
2019-02-08T14:27:12.961Z,1.40
2019-02-08T14:30:03.162Z,1.30
2019-02-08T14:32:53.541Z,1.30
2019-02-08T14:35:43.806Z,2.03
2019-02-08T14:38:35.532Z,1.70
2019-02-08T14:41:25.631Z,1.60
2019-02-08T14:44:15.949Z,1.13
2019-02-08T14:47:05.954Z,1.50
2019-02-08T14:49:55.863Z,1.40
2019-02-08T14:52:46.402Z,1.10
2019-02-08T14:55:36.598Z,1.30
2019-02-08T14:58:26.737Z,1.23
2019-02-08T15:01:16.797Z,1.33
2019-02-08T15:04:07.878Z,1.37
2019-02-08T15:06:57.948Z,1.27
2019-02-08T15:09:47.873Z,1.20
2019-02-08T15:12:37.843Z,1.63
2019-02-08T15:15:28.133Z,1.63
2019-02-08T15:18:18.795Z,1.90
2019-02-08T15:21:08.970Z,1.43
2019-02-08T15:23:59.414Z,1.30
2019-02-08T15:26:49.535Z,1.43
2019-02-08T15:29:39.862Z,1.30
2019-02-08T15:32:29.917Z,1.20
2019-02-08T15:35:22.030Z,1.20
2019-02-08T15:38:12.215Z,1.20
2019-02-08T15:41:03.100Z,0.90
2019-02-08T15:43:53.194Z,1.33
2019-02-08T15:46:43.446Z,1.40
2019-02-08T15:49:33.427Z,1.33
2019-02-08T15:52:23.509Z,0.97
2019-02-08T15:55:17.222Z,1.10
2019-02-08T15:58:07.714Z,1.53
2019-02-08T16:00:57.895Z,1.20
2019-02-08T16:03:48.074Z,1.30
2019-02-08T16:06:38.199Z,1.50
2019-02-08T16:09:28.483Z,2.43
2019-02-08T16:12:18.385Z,3.37
2019-02-08T16:15:11.938Z,2.10
2019-02-08T16:18:02.145Z,2.03
2019-02-08T16:20:52.382Z,1.70
2019-02-08T16:23:43.351Z,1.70
2019-02-08T16:26:33.858Z,1.57
2019-02-08T16:29:23.863Z,1.37
2019-02-08T16:32:14.002Z,1.40
2019-02-08T16:35:05.365Z,1.33
2019-02-08T16:37:55.654Z,1.53
2019-02-08T16:40:45.786Z,1.40
2019-02-08T16:43:36.054Z,1.00
2019-02-08T16:46:26.239Z,1.47
2019-02-08T16:49:16.432Z,1.40
2019-02-08T16:52:07.810Z,1.27
2019-02-08T16:54:58.046Z,1.40
2019-02-08T16:57:48.509Z,1.50
2019-02-08T17:00:38.991Z,1.47
2019-02-08T17:03:29.102Z,1.40
2019-02-08T17:06:19.473Z,1.50
2019-02-08T17:09:13.904Z,3.97
2019-02-08T17:12:04.089Z,1.30
2019-02-08T17:14:54.681Z,2.47
2019-02-08T17:17:45.078Z,1.50
2019-02-08T17:20:43.538Z,3.27
2019-02-08T17:23:33.826Z,1.40
2019-02-08T17:26:24.247Z,1.50
2019-02-08T17:29:14.282Z,1.40
2019-02-08T17:32:04.596Z,1.57
2019-02-08T17:34:54.587Z,1.50
2019-02-08T17:37:44.944Z,1.23
2019-02-08T17:40:36.515Z,1.40
2019-02-08T17:43:26.933Z,1.30
2019-02-08T17:46:16.890Z,1.90
2019-02-08T17:49:07.035Z,1.90
2019-02-08T17:51:57.338Z,2.63
2019-02-08T17:54:47.742Z,1.30
2019-02-08T17:57:38.230Z,1.63
2019-02-08T18:00:47.967Z,2.00
2019-02-08T18:03:38.195Z,1.57
2019-02-08T18:06:28.574Z,1.53
2019-02-08T18:09:18.843Z,1.47
2019-02-08T18:12:08.654Z,1.67
2019-02-08T18:14:58.935Z,1.50
2019-02-08T18:17:49.124Z,1.87
2019-02-08T18:20:41.596Z,1.87
2019-02-08T18:23:31.826Z,1.37
2019-02-08T18:26:22.085Z,1.17
2019-02-08T18:29:12.778Z,1.60
2019-02-08T18:32:03.086Z,1.30
2019-02-08T18:34:54.398Z,1.10
2019-02-08T18:37:44.748Z,1.37
2019-02-08T18:40:34.945Z,1.43
2019-02-08T18:43:25.223Z,1.23
2019-02-08T18:46:15.613Z,1.27
2019-02-08T18:49:05.629Z,1.37
2019-02-08T18:51:55.854Z,1.40
2019-02-08T18:54:45.852Z,1.30
2019-02-08T18:57:36.623Z,1.20
2019-02-08T19:00:39.503Z,1.30
2019-02-08T19:03:24.298Z,1.53
2019-02-08T19:06:14.242Z,1.27
2019-02-08T19:09:08.166Z,1.70
2019-02-08T19:11:58.476Z,2.00
2019-02-08T19:14:48.666Z,1.70
2019-02-08T19:17:39.049Z,1.60
2019-02-08T19:20:29.822Z,1.60
2019-02-08T19:23:20.045Z,1.70
2019-02-08T19:26:10.220Z,1.70
2019-02-08T19:29:00.609Z,1.80
2019-02-08T19:31:50.978Z,1.80
2019-02-08T19:34:41.274Z,2.60
2019-02-08T19:37:31.245Z,2.03
2019-02-08T19:40:41.801Z,1.83
2019-02-08T19:43:31.678Z,2.00
2019-02-08T19:46:22.121Z,2.43
2019-02-08T19:49:12.330Z,2.20
2019-02-08T19:52:02.651Z,2.13
2019-02-08T19:54:52.927Z,2.10
2019-02-08T19:57:43.177Z,2.00
2019-02-08T20:00:34.258Z,2.73
2019-02-08T20:03:25.479Z,2.13
2019-02-08T20:06:15.876Z,2.60
2019-02-08T20:09:09.166Z,2.30
2019-02-08T20:11:59.614Z,2.83
2019-02-08T20:14:49.978Z,2.20
2019-02-08T20:17:40.213Z,2.60
2019-02-08T20:20:30.571Z,2.40
2019-02-08T20:23:20.833Z,2.27
2019-02-08T20:26:11.054Z,2.80
2019-02-08T20:29:01.591Z,2.77
2019-02-08T20:31:51.934Z,3.00
2019-02-08T20:34:41.912Z,3.10
2019-02-08T20:37:32.606Z,2.67
2019-02-08T20:40:27.832Z,3.57
2019-02-08T20:43:18.177Z,3.60
2019-02-08T20:46:08.401Z,3.37
2019-02-08T20:48:59.210Z,3.70
2019-02-08T20:51:49.730Z,3.50
2019-02-08T20:54:40.690Z,3.50
2019-02-08T20:57:31.202Z,3.47
2019-02-08T21:00:29.982Z,3.30
2019-02-08T21:03:20.898Z,3.00
2019-02-08T21:06:11.058Z,3.07
2019-02-08T21:09:01.551Z,2.87
2019-02-08T21:11:53.014Z,2.97
2019-02-08T21:14:43.458Z,3.20
2019-02-08T21:17:33.763Z,5.60
2019-02-08T21:20:23.847Z,3.00
2019-02-08T21:23:15.498Z,3.23
2019-02-08T21:26:05.913Z,3.63
2019-02-08T21:28:58.083Z,2.90
2019-02-08T21:31:47.963Z,3.40
2019-02-08T21:34:37.967Z,3.50
2019-02-08T21:37:28.385Z,2.57
2019-02-08T21:40:20.006Z,2.00
2019-02-08T21:43:10.431Z,2.00
2019-02-08T21:46:00.801Z,1.20
2019-02-08T21:48:51.326Z,1.47
2019-02-08T21:51:41.527Z,1.87
2019-02-08T21:54:32.091Z,2.00
2019-02-08T21:57:23.145Z,2.63
2019-02-08T22:00:23.890Z,2.93
2019-02-08T22:03:14.611Z,2.87
2019-02-08T22:06:09.053Z,2.30
2019-02-08T22:08:59.273Z,2.23
2019-02-08T22:11:49.283Z,2.17
2019-02-08T22:14:40.074Z,2.17
2019-02-08T22:17:30.346Z,1.77
2019-02-08T22:20:20.970Z,1.43
2019-02-08T22:23:11.246Z,2.20
2019-02-08T22:26:01.348Z,2.67
2019-02-08T22:28:51.548Z,1.60
2019-02-08T22:31:42.357Z,1.73
2019-02-08T22:34:32.578Z,1.60
2019-02-08T22:37:22.882Z,1.30
2019-02-08T22:40:15.587Z,1.70
2019-02-08T22:43:06.114Z,1.40
2019-02-08T22:45:56.054Z,1.30
2019-02-08T22:48:46.389Z,1.60
2019-02-08T22:51:37.070Z,1.00
2019-02-08T22:54:28.072Z,3.13
2019-02-08T22:57:18.150Z,0.97
2019-02-08T23:00:39.761Z,1.57
2019-02-08T23:03:30.897Z,0.93
2019-02-08T23:06:21.070Z,1.20
2019-02-08T23:09:20.950Z,1.17
2019-02-08T23:12:11.363Z,1.10
2019-02-08T23:15:01.413Z,1.10
2019-02-08T23:17:51.313Z,0.90
2019-02-08T23:20:41.387Z,0.90
2019-02-08T23:23:31.454Z,1.10
2019-02-08T23:26:21.586Z,1.10
2019-02-08T23:29:11.638Z,1.03
2019-02-08T23:32:02.165Z,1.60
2019-02-08T23:34:52.901Z,2.03
2019-02-08T23:37:43.315Z,1.30
2019-02-08T23:40:33.524Z,1.10
2019-02-08T23:43:23.545Z,0.90
2019-02-08T23:46:13.820Z,1.77
2019-02-08T23:49:03.929Z,1.20
2019-02-08T23:51:54.724Z,1.50
2019-02-08T23:54:44.689Z,1.53
